Rick Frimpong

Olheiro-Chefe - Twente
23 Out 2027
Sábado
Processo

Personalidade

Adaptabilidade (11) Ambição (16) Controvérsia (3) Lealdade (18) Pressão (16) Profissionalismo (17) Espírito Esportivo (5) Temperamento (18)

Perfil

Estilo de Treinamento Democrático
Licença Continental A
Determinação 14
Gestão de Pessoas 8
Motivação 7
Disciplina 13
Satisfação no Trabalho
100%
Fadiga
0%
Função Olheiro-Chefe
Salário 47.0K p/s
Contrato 14.03.2030

Desempenho

Comportamento Bom
Eficácia do Treinamento
40%
Desenvolvimento do Jogador
50%
Prevenção de Lesões
30%
Implementação Tática
35%

Eventos Recentes

Participou de uma reunião de recrutamento agora
Participou de uma reunião de recrutamento agora
Participou de uma reunião de recrutamento agora
Recomendou um alvo de transferência agora
Participou de uma reunião de recrutamento 7d atrás
Recomendou um alvo de transferência 7d atrás
Recomendou um alvo de transferência 7d atrás
Recomendou um alvo de transferência 7d atrás

Monitorando agora

240
Jogador Clube Status Habilidade Confiança Observado Última observação Último voto
Gonçalo Inácio West Ham United Relatório pronto 147 / 149 67% 1 01.06.2027 -
Antonio Gomis Vizela Ativo 122 / 119 40% 3 30.05.2027 -
Berke Özer LOSC Lille Ativo 132 / 132 40% 3 30.05.2027 -
Cristopher Varela Deportivo La Guaira Ativo 126 / 119 40% 1 30.05.2027 -
Danylo Sikan Anderlecht Ativo 124 / 129 40% 3 29.05.2027 -
Hugo Cuypers Monterrey Ativo 120 / 127 40% 2 29.05.2027 -
Joe Gelhardt Hull City Ativo 132 / 133 40% 2 29.05.2027 -
Ez Abde Betis Ativo 149 / 151 40% 5 27.05.2027 -
Yousef Salech Cardiff City Ativo 131 / 122 40% 3 27.05.2027 -
Jorge Pascual Granada Ativo 140 / 139 40% 5 26.05.2027 -
Iván Romero Levante Ativo 133 / 137 40% 2 26.05.2027 -
Pau Víctor Estrela da Amadora Ativo 134 / 136 40% 10 25.05.2027 Observar
Adriano Bertaccini Anderlecht Ativo 125 / 127 40% 4 24.05.2027 -
Lamine Cissé Peterborough United Ativo 128 / 123 40% 2 24.05.2027 -
Mihailo Ivanović Millwall Ativo 120 / 131 40% 1 24.05.2027 -
Matěj Kovář PSV Ativo 134 / 135 40% 4 23.05.2027 -
Alexis Vega Famalicao Ativo 152 / 143 40% 3 23.05.2027 -
Urko Izeta Cádiz Ativo 130 / 134 40% 3 23.05.2027 -
Igor Nikić Lech Ativo 128 / 114 40% 1 23.05.2027 -
Juan Diego Castillo Vitoria Guimaraes Ativo 117 / 118 40% 1 23.05.2027 -
Pedro de la Vega Leganés Ativo 138 / 139 66% 2 21.05.2027 Aprovar
Rumarn Burrell Queens Park Rangers Ativo 123 / 129 40% 5 21.05.2027 -
Dango Ouattara Brentford Ativo 145 / 146 40% 3 21.05.2027 -
Liam Delap Nottingham Forest Ativo 151 / 148 40% 2 21.05.2027 -
Javi Puado Espanyol Ativo 153 / 150 40% 3 19.05.2027 -
Jonathan Dubasin Osasuna Ativo 142 / 137 40% 1 18.05.2027 -
Hugo Duro Valencia Ativo 146 / 142 40% 2 17.05.2027 -
Oli McBurnie Hull City Ativo 140 / 137 40% 1 17.05.2027 -
Carl Rushworth Coventry City Ativo 134 / 136 40% 2 16.05.2027 -
Robin Risser RC Lens Ativo 148 / 141 40% 6 16.05.2027 -
Kilian Nikiéma ADO Den Haag Ativo 127 / 124 40% 4 16.05.2027 -
Umar Sadiq Valencia Ativo 141 / 139 40% 2 15.05.2027 -
Tyrese Campbell Sheffield United Ativo 120 / 130 40% 1 15.05.2027 -
Adnan Carrasco FC Nantes Ativo 154 / 161 40% 5 14.05.2027 -
Kyle Wootton Stockport County Ativo 122 / 120 40% 3 14.05.2027 -
Million Manhoef Stoke City Ativo 123 / 123 40% 2 13.05.2027 -
Hugo Álvarez Celta Ativo 142 / 144 40% 1 13.05.2027 -
Jovon Makama Norwich City Ativo 123 / 127 40% 2 11.05.2027 -
Charles De Ketelaere Atalanta Ativo 151 / 148 40% 5 10.05.2027 -
Yehvann Diouf OGC Nice Ativo 138 / 139 40% 2 09.05.2027 -
Dodi Lukébakio Benfica Ativo 148 / 147 40% 2 09.05.2027 -
Deniz Ertaş Konyaspor Ativo 113 / 117 40% 2 08.05.2027 -
Rome-Jayden Owusu-Oduro Heerenveen Ativo 140 / 146 40% 1 08.05.2027 -
Myron van Brederode KV Mechelen Ativo 125 / 122 40% 5 07.05.2027 -
Gianluca Scamacca Atalanta Ativo 156 / 144 40% 3 06.05.2027 -
Ferran Jutglà Celta Ativo 141 / 140 40% 1 06.05.2027 -
Antoni Milambo Brentford Ativo 141 / 141 40% 1 06.05.2027 -
Jonathan Fischer FC Metz Ativo 130 / 134 40% 4 03.05.2027 -
Gonzalo Crettaz NEC Ativo 132 / 137 40% 2 03.05.2027 -
Álex Forés Burgos Ativo 123 / 133 40% 2 03.05.2027 -
Gonzalo Fulham Ativo 140 / 142 40% 1 03.05.2027 -
Guillaume Restes Toulouse FC Ativo 134 / 140 40% 4 02.05.2027 -
James Trafford Leeds United Ativo 140 / 143 40% 7 02.05.2027 -
Sławomir Abramowicz Jagiellonia Ativo 128 / 127 40% 3 02.05.2027 -
Tani Oluwaseyi Villarreal Ativo 145 / 140 40% 4 30.04.2027 -
Isaac Romero Sevilla Ativo 146 / 138 40% 2 28.04.2027 -
Maroan Sannadi Athletic Bilbao Ativo 134 / 131 40% 2 28.04.2027 -
Mads Hermansen West Ham United Ativo 134 / 134 40% 4 27.04.2027 -
Brennan Johnson Everton Ativo 144 / 142 40% 3 24.04.2027 -
Leo Román Deportivo La Coruña Ativo 152 / 148 40% 5 24.04.2027 -
Svetoslav Vutsov Levski Ativo 136 / 130 40% 2 24.04.2027 -
Kostantis Tzolakis Hull City Ativo 140 / 146 40% 7 23.04.2027 -
Michael Cooper Sheffield United Ativo 130 / 126 40% 2 23.04.2027 -
Lorenzo Palmisani Frosinone Ativo 124 / 132 40% 3 21.04.2027 -
Mathys Tel Stade Rennais Ativo 140 / 144 40% 1 21.04.2027 -
Jorge De Frutos Rayo Vallecano Ativo 151 / 144 40% 1 20.04.2027 -
Andrés Martín Racing Santander Ativo 141 / 136 40% 3 19.04.2027 -
Đorđe Petrović Bournemouth Ativo 155 / 147 40% 6 18.04.2027 -
Elia Caprile Osasuna Ativo 145 / 147 40% 2 18.04.2027 -
Taiwo Awoniyi Coventry City Ativo 145 / 138 40% 3 14.04.2027 -
Elijah Adebayo Luton Town Ativo 128 / 118 40% 2 14.04.2027 -
Zian Flemming Ipswich Town Ativo 139 / 127 40% 5 13.04.2027 -
Kerem Aktürkoğlu Fenerbahce Ativo 151 / 139 40% 2 12.04.2027 -
Kevin Schade Brentford Ativo 155 / 147 40% 4 10.04.2027 -
Christantus Uche Getafe Ativo 139 / 144 40% 1 09.04.2027 -
Jakob Napoleon Romsaas Charleroi Ativo 124 / 128 40% 5 08.04.2027 -
Aaron Collins Milton Keynes Dons Ativo 117 / 114 40% 3 08.04.2027 -
Bernardo Fontes Braga Ativo 136 / 129 40% 4 06.04.2027 -
Josh Keeley Luton Town Ativo 129 / 125 40% 1 06.04.2027 -
Donyell Malen AS Roma Ativo 152 / 151 40% 4 01.04.2027 -
Toni Martínez Alavés Ativo 132 / 137 40% 1 01.04.2027 -
Mathias Jørgensen Blackburn Rovers Ativo 116 / 118 40% 1 30.03.2027 -
Borja Mayoral Getafe Ativo 140 / 147 40% 1 30.03.2027 -
Ruslan Neshcheret Dynamo Kyiv Ativo 115 / 128 40% 4 29.03.2027 -
Jonmi Magunagoitia Eibar Ativo 130 / 123 40% 1 28.03.2027 -
Mexx Meerdink Feyenoord Ativo 140 / 134 40% 2 26.03.2027 -
Aune Heggebø West Bromwich Albion Ativo 133 / 129 40% 1 26.03.2027 -
Edoardo Motta Lazio Ativo 129 / 132 40% 2 23.03.2027 -
Youssef En-Nesyri Al-Ittihad Ativo 149 / 151 40% 3 23.03.2027 -
Jean-Philippe Mateta Crystal Palace Ativo 159 / 146 40% 2 20.03.2027 -
Marvin Keller Racing Genk Ativo 147 / 136 40% 2 18.03.2027 -
Ismaïla Sarr Crystal Palace Ativo 149 / 146 40% 3 18.03.2027 -
Luis Suárez PSV Ativo 150 / 158 40% 3 17.03.2027 -
Mauro Júnior PSV Ativo 150 / 140 40% 6 16.03.2027 -
Tammy Abraham Aston Villa Ativo 140 / 144 40% 1 16.03.2027 -
Couhaib Driouech Celta Ativo 132 / 138 40% 1 16.03.2027 -
Félix Lemaréchal Club Brugge Ativo 143 / 132 40% 2 15.03.2027 -
Chemsdine Talbi Sunderland Ativo 141 / 140 40% 1 15.03.2027 -
Radek Vítek Middlesbrough Ativo 133 / 145 40% 2 14.03.2027 -
Santiago Castro AS Roma Ativo 144 / 152 40% 1 11.03.2027 -
Jon Morcillo Almería Ativo 135 / 138 40% 1 10.03.2027 -
Guus Til PSV Ativo 138 / 144 40% 2 09.03.2027 -
Amir Hosseini Rah Ahan Ativo 133 / 130 40% 1 09.03.2027 -
Rodrigo Muniz Fulham Ativo 136 / 144 40% 2 07.03.2027 -
Yoane Wissa Newcastle United Ativo 146 / 141 40% 1 07.03.2027 -
Dominic Calvert-Lewin FC Nantes Ativo 139 / 142 40% 1 07.03.2027 -
Uriel Antuna Pumas UNAM Ativo 137 / 129 40% 1 06.03.2027 -
Lazar Carević Famalicao Ativo 133 / 138 40% 4 04.03.2027 -
Leandro Brey Sevilla Ativo 125 / 125 40% 2 03.03.2027 -
Fran Vieites Exeter City Ativo 119 / 124 40% 1 03.03.2027 -
Yanis Begraoui Estoril Praia Ativo 140 / 138 40% 1 01.03.2027 -
Andreas Jungdal Westerlo Ativo 118 / 126 40% 2 28.02.2027 -
Gabriel Brazão Santos Ativo 126 / 123 40% 2 27.02.2027 -
Senne Lammens Manchester United Ativo 146 / 149 40% 2 24.02.2027 -
Cezary Miszta Rio Ave Ativo 131 / 126 40% 1 21.02.2027 -
Thulani Billiat Utrecht Ativo 144 / 138 40% 3 20.02.2027 -
Mats Wieffer Brighton Ativo 153 / 153 40% 4 20.02.2027 -
Bilal Bayazıt Kayserispor Ativo 115 / 129 40% 2 20.02.2027 -
Julen Agirrezabala Racing Santander Ativo 143 / 139 40% 4 19.02.2027 -
Anthony Patterson Wrexham Ativo 125 / 126 40% 2 17.02.2027 -
Marco Carnesecchi Torino Ativo 164 / 160 40% 1 17.02.2027 -
Ezequiel Bullaude Santos Laguna Ativo 131 / 130 40% 1 14.02.2027 -
Maduka Okoye Udinese Ativo 139 / 138 40% 1 08.02.2027 -
Bento Lokomotiv Moscow Ativo 131 / 141 40% 1 07.02.2027 -
Abdelkahar Kadri KAA Gent Ativo 133 / 128 40% 1 07.02.2027 -
Brian Gutiérrez Guadalajara Ativo 137 / 129 40% 1 07.02.2027 -
Jacob Ramsey Newcastle United Ativo 151 / 146 40% 1 04.02.2027 -
Jordan Teze Monaco Ativo 133 / 138 40% 3 03.02.2027 -
Mikel Jauregizar Athletic Bilbao Ativo 150 / 158 40% 1 03.02.2027 -
Brent Gabriel Zulte Waregem Ativo 126 / 113 40% 1 06.01.2027 -
Patrick Sequeira Casa Pia Ativo 130 / 132 40% 1 05.01.2027 -
Erick Sánchez Valladolid Ativo 139 / 139 68% 1 01.01.2027 Aprovar
Federico Pereira Huracán Ativo 135 / 135 66% 1 01.01.2027 -
Ian Maatsen Aston Villa Ativo 149 / 156 40% 3 29.12.2026 -
Ethan Galbraith Swansea City Ativo 138 / 137 40% 2 29.12.2026 -
Fran García Betis Ativo 151 / 141 40% 2 29.12.2026 -
Marco Kana Anderlecht Ativo 133 / 121 40% 4 28.12.2026 -
José Ángel Carmona Sevilla Ativo 150 / 146 40% 2 28.12.2026 -
Julian Palacios Feyenoord Ativo 143 / 146 40% 4 27.12.2026 -
Aiham Ousou Charleroi Ativo 131 / 125 40% 4 27.12.2026 -
Tuerto Sevilla Ativo 147 / 152 40% 3 27.12.2026 -
Oussama Targhalline Feyenoord Ativo 129 / 142 40% 5 26.12.2026 -
Oliver Skipp Leicester City Ativo 126 / 129 40% 1 26.12.2026 -
Jesús Areso Athletic Bilbao Ativo 136 / 137 40% 1 26.12.2026 -
Freddie Potts Club Brugge Ativo 127 / 137 40% 3 24.12.2026 -
Daijiro Chirino Almería Ativo 134 / 136 40% 1 24.12.2026 -
Ryan Flamingo PSV Ativo 142 / 137 40% 5 23.12.2026 Observar
Amadou Onana Newcastle United Ativo 156 / 158 40% 1 23.12.2026 -
Nico González Newcastle United Ativo 160 / 168 40% 1 23.12.2026 -
Mika Mármol Feyenoord Ativo 134 / 143 40% 6 22.12.2026 -
Thomas Alderweireld Dijon Ativo 124 / 135 40% 4 22.12.2026 -
Jalen Hawkins ADO Den Haag Ativo 108 / 114 40% 1 22.12.2026 -
Karim Adeyemi Barcelona Ativo 154 / 152 40% 1 21.12.2026 -
Jorrel Hato Chelsea Ativo 143 / 149 40% 5 19.12.2026 -
Sven Botman Newcastle United Ativo 164 / 161 40% 1 19.12.2026 -
Conrad Wallem Aalborg Ativo 123 / 121 40% 2 18.12.2026 -
Joaquin Seys Club Brugge Ativo 123 / 133 40% 1 18.12.2026 -
Milan van Ewijk Coventry City Ativo 137 / 137 40% 4 17.12.2026 -
Ki-Jana Hoever Sparta Prague Ativo 135 / 120 40% 2 16.12.2026 -
Antonio Blanco Alavés Ativo 139 / 149 40% 1 16.12.2026 -
Ilay Camara Anderlecht Ativo 137 / 136 40% 3 14.12.2026 -
Adam Wharton Crystal Palace Ativo 149 / 158 40% 1 14.12.2026 -
Joaquim Tigres Ativo 129 / 131 40% 1 13.12.2026 -
Jayden Oosterwolde Fenerbahce Ativo 128 / 142 40% 1 13.12.2026 -
Adrian Van Rumst Legion Ativo 69 / 67 40% 1 13.12.2026 -
Quinten Timber Crystal Palace Ativo 145 / 144 40% 5 11.12.2026 -
Pol Lozano Espanyol Ativo 143 / 131 40% 1 11.12.2026 -
Sepp van den Berg Brentford Ativo 146 / 147 40% 5 10.12.2026 -
Kevin Paredes Köln Ativo 127 / 137 40% 1 10.12.2026 -
Tyrell Malacia Derby County Ativo 132 / 133 40% 3 09.12.2026 -
Sergio Gómez Real Sociedad Ativo 142 / 137 40% 1 07.12.2026 -
Omar El Hilali Espanyol Ativo 144 / 140 40% 1 07.12.2026 -
Neco Williams Nottingham Forest Ativo 138 / 145 40% 3 06.12.2026 -
Peer Koopmeiners AZ Ativo 142 / 128 40% 2 06.12.2026 -
Sergiño Dest PSV Ativo 143 / 135 40% 3 05.12.2026 -
Alex Scott Bournemouth Ativo 145 / 156 40% 2 05.12.2026 -
Mitchel Bakker Rostov Ativo 119 / 121 40% 2 03.12.2026 -
Max Bird Birmingham Ativo 131 / 128 40% 1 03.12.2026 -
Ramón Terrats Getafe Ativo 136 / 144 40% 1 01.12.2026 -
Óscar Mingueza Crystal Palace Ativo 149 / 155 40% 3 29.11.2026 -
Devyne Rensch AS Roma Ativo 143 / 135 40% 3 29.11.2026 -
Jordan Beyer Burnley Ativo 134 / 125 40% 2 27.11.2026 -
Zayd El Kandoussi OH Leuven Ativo 115 / 106 40% 1 24.11.2026 -
Gabriel Gudmundsson Leeds United Ativo 139 / 135 40% 1 23.11.2026 -
Victor Torp Coventry City Ativo 132 / 127 40% 3 21.11.2026 -
Yehor Yarmoliuk Brentford Ativo 150 / 149 40% 1 21.11.2026 -
Matteo Dams Club Brugge Ativo 136 / 135 40% 5 20.11.2026 -
Ryan Sessegnon Fulham Ativo 142 / 142 40% 1 20.11.2026 -
Givairo Read Feyenoord Ativo 139 / 141 40% 1 19.11.2026 -
Nathan Collins Brentford Ativo 150 / 139 40% 2 17.11.2026 -
Youri Baas Ajax Ativo 138 / 140 40% 1 17.11.2026 -
James Garner Everton Ativo 147 / 151 40% 2 16.11.2026 -
Florentino Luís Ipswich Town Ativo 133 / 145 40% 2 15.11.2026 -
Sergio Barreto Pachuca Ativo 127 / 138 40% 1 15.11.2026 -
Tim Iroegbunam Hull City Ativo 141 / 140 40% 1 14.11.2026 -
Kelly Saravanan Salford City Ativo 112 / 113 40% 2 13.11.2026 -
Manu Koné AS Roma Ativo 156 / 162 40% 1 13.11.2026 -
Marin Benko Zadar Ativo 115 / 121 40% 1 12.11.2026 -
Noah Sadiki Sunderland Ativo 143 / 148 40% 2 06.11.2026 -
Kenneth Taylor Lazio Ativo 148 / 155 40% 1 06.11.2026 -
Tyler Adams Bournemouth Ativo 152 / 155 40% 1 05.11.2026 -
Rafiu Durosinmi Racing Genk Ativo 127 / 130 40% 4 04.11.2026 -
Pascal Struijk Brighton Ativo 134 / 146 40% 2 28.10.2026 -
Jakub Moder Feyenoord Ativo 146 / 145 40% 1 28.10.2026 -
Evan N'Dicka AS Roma Ativo 159 / 151 40% 1 27.10.2026 -
Aidan Morris Middlesbrough Ativo 124 / 131 40% 1 22.10.2026 -
Franco Ibarra Rosario Central Ativo 137 / 131 40% 1 16.10.2026 -
Franco Romero Toluca Ativo 130 / 135 40% 1 16.10.2026 -
Elliot Anderson Manchester City Ativo 156 / 157 40% 1 15.10.2026 -
Adrien Truffert Bournemouth Ativo 142 / 158 40% 1 15.10.2026 -
Jerome Karelse Golden Arrows Ativo 97 / 100 40% 1 12.10.2026 -
Owen Wijndal Ajax Ativo 129 / 133 40% 1 12.10.2026 -
André Wolverhampton Ativo 143 / 146 40% 1 12.10.2026 -
Nicolas Binder Cambuur Ativo 102 / 105 40% 1 10.10.2026 -
Zeki Amdouni Burnley Ativo 135 / 127 40% 1 09.10.2026 -
Mees Rijks Bristol Rovers Ativo 105 / 106 40% 1 08.10.2026 -
Martín Ojeda Orlando City Ativo 138 / 142 40% 2 07.10.2026 -
Kévin Denkey FC Cincinnati Ativo 127 / 123 40% 1 07.10.2026 -
Dylan Vente Heerenveen Ativo 111 / 120 40% 1 05.10.2026 -
Harry Clarke Preston Ativo 135 / 121 40% 1 05.10.2026 -
Anton Fase PSIM Ativo 104 / 105 40% 1 30.09.2026 -
Camilo Durán Bloemfontein Celtic Ativo 118 / 123 40% 1 30.09.2026 -
Alan Velasco Boca Juniors Ativo 118 / 141 40% 2 29.09.2026 -
Igor Jesus Nottingham Forest Ativo 142 / 142 40% 1 29.09.2026 -
George Hirst Stoke City Ativo 139 / 137 40% 1 24.09.2026 -
Brian Brobbey Sunderland Ativo 142 / 139 40% 3 23.09.2026 -
Ryotaro Araki Sint-Truiden Ativo 111 / 107 40% 2 22.09.2026 -
Ayoub Oufkir AZ Ativo 133 / 142 40% 1 22.09.2026 -
Isa Sakamoto Westerlo Ativo 115 / 124 40% 1 18.09.2026 -
Agustín Anello Philadelphia Union Ativo 128 / 133 40% 1 17.09.2026 -
Brandon Vázquez Austin FC Ativo 126 / 120 40% 1 14.09.2026 -
Nacho Ferri Feyenoord Ativo 123 / 131 40% 1 13.09.2026 -
Maurice Malone Minnesota United FC Ativo 123 / 118 40% 2 10.09.2026 -
Kyan Vaesen OH Leuven Ativo 107 / 109 40% 1 08.09.2026 -
Oscar Gloukh Ajax Ativo 127 / 131 40% 1 08.09.2026 -
Vasilis Zagaritis Heerenveen Ativo 125 / 121 69% 1 24.08.2026 Aprovar
Luca Langoni New England Revolution Ativo 132 / 133 40% 1 24.08.2026 -
Dinko Horkaš Al Wasl Ativo 119 / 136 40% 1 17.08.2026 -
Steven Bergwijn Al-Ittihad Ativo 137 / 148 40% 1 10.08.2026 -
Dimitri Lavalée Standard Liege Ativo 127 / 129 40% 1 01.08.2026 -